x

Gulf Of Maine - 78 Nm East Of Portsmouth, Nh (44005) Wave Buoy

9:50 - Fri 29th Aug 2014 All times are EDT. -4 hours from GMT.

  • Sig Wave height 4.6ft
  • Peak Period 12s
  • Average Period 5s
  • Wind
    18mph, 22mph gusts
  • Sea Temp 65°f
  • Air Temp 59°f
  • Sea Pressure 1020.7mb
  • Gulf Of Maine - 78 Nm East Of Portsmouth, Nh
  • Gulf Of Maine - 78 Nm East Of Portsmouth, Nh

More Historic Weather Station data

Upgrade to MSW Pro to gain access to the past 30 days of data for over 8000 Wavebouys and Weather Stations around the globe.

Join Pro

Comparision Forecast

View Surf forecast
   
ven. 08/29 9:50 4.5ft 12s 5s 18 22 mph 1020.7mb 65f 59f
8:50 5ft 13s 6s 20 25 mph 1019.3mb 65f 60f
7:50 5ft 13s 5s 18 22 mph 1018.6mb 65f 60f
6:50 5.5ft 13s 6s 22 27 mph 1017.8mb 65f 60f
5:50 6ft 13s 6s 20 25 mph 1016.4mb 65f 61f
4:50 5.5ft 13s 6s 22 27 mph 1015.1mb 66f 62f
3:50 5.5ft 12s 6s 20 27 mph 1014.4mb 66f 63f
2:50 4.5ft 13s 5s 20 22 mph 1013.8mb 66f 64f
1:50  -   -   -  20
mph
1013.3mb 66f 64f
12:50 6.5ft 14s 7s 20 25 mph 1012.8mb 67f 64f
jeu. 08/28 11:50  -   -   -  22
mph
- - -
10:00 6ft 15s 6s 20 25 mph 1011.9mb 67f 65f
9:50 5ft 14s 6s 20 25 mph 1011.5mb 67f 66f
8:50 5.5ft 14s 6s 20 27 mph 1010.7mb 67f 67f
7:50 6ft 11s 6s 25 31 mph 1009.5mb 67f 68f
6:50 5ft 13s 8s 20 25 mph 1008.8mb 68f 69f
4:50  -   -   -  16
mph
- - -
3:50 5ft 12s 9s 11 13 mph 1006.9mb 68f 69f
2:50 6ft 13s 10s 11 16 mph 1006.7mb 68f 69f
1:50 6ft 13s 9s 11 13 mph 1006.9mb 68f 68f
12:50 6ft 13s 9s 11 13 mph 1006.9mb 68f 68f
11:50 6ft 14s 9s 13 18 mph 1007.1mb 67f 67f
10:50 5ft 14s 8s 16 18 mph 1007.8mb 67f 67f
9:50 5ft 14s 8s 16 20 mph 1008.1mb 67f 67f
8:50 5ft 14s 8s 13 16 mph 1008.1mb 67f 66f
7:50 6ft 15s 9s 13 16 mph 1008mb 67f 66f
6:50 6ft 15s 8s 13 18 mph 1007.7mb 67f 67f
5:50 6ft 13s 8s 13 16 mph 1007.7mb 67f 67f
4:50 6.5ft 12s 8s 16 20 mph 1007.4mb 67f 67f
3:50 6ft 11s 8s 16 20 mph 1007.3mb 67f 68f
2:50 5.5ft 12s 8s 13 18 mph 1007mb 67f 69f
1:50 6ft 13s 7s 16 18 mph 1007.4mb 67f 68f
12:50 5ft 12s 6s 11 13 mph 1008mb 67f 70f
mer. 08/27 11:50 5ft 12s 6s 11 13 mph 1008.5mb 67f 70f
10:50 5ft 13s 5s 16 18 mph 1009mb 67f 70f
9:50 5ft 10s 5s 18 22 mph 1009.4mb 67f 70f
8:50 5ft 12s 5s 16 18 mph 1009.6mb 67f 70f
7:50 5.5ft 13s 6s 18 20 mph 1009.5mb 67f 71f
6:50 5.5ft 5s 6s 16 20 mph 1009.4mb 67f 71f
5:50 5ft 10s 5s 16 20 mph 1009.7mb 68f 71f
4:50 4.5ft 5s 5s 18 20 mph 1009.7mb 68f 71f
3:50 4.5ft 5s 5s 18 20 mph 1009.7mb 68f 71f
2:50 5ft 5s 5s 18 20 mph 1010.2mb 67f 70f
1:50 4.5ft 5s 5s 18 22 mph 1010.6mb 67f 69f
12:50 4ft 5s 4s 18 22 mph 1011.4mb 67f 69f
11:50 4ft 5s 5s 20 25 mph 1012.2mb 67f 69f
10:50 4ft 5s 5s 16 18 mph 1013mb 67f 69f
9:50 3.5ft 5s 5s 18 20 mph 1013.1mb 67f 69f
8:50 4ft 5s 5s 16 20 mph 1013.3mb 66f 69f
7:50 4.5ft 8s 5s 16 18 mph 1013.6mb 66f 69f
6:50 4.5ft 5s 5s 18 20 mph 1013.6mb 66f 69f
5:50  -   -   -  16
mph
- - -
4:50 4.5ft 5s 5s 18 20 mph 1013.7mb 67f 69f
3:50  -   -   -  18 22 mph 1013.9mb 67f 69f
2:50 4.5ft 5s 4s 20 25 mph 1014.2mb 67f 69f
1:50 4.5ft 6s 4s 22 25 mph 1014.7mb 67f 69f
12:50 4.5ft 5s 4s 20 25 mph 1015.3mb 67f 69f
mar. 08/26 11:50 4.5ft 5s 4s 20 25 mph 1015.6mb 67f 69f
10:50 4ft 9s 4s 20 22 mph 1016.2mb 68f 69f
9:50 3.5ft 4s 4s 20 25 mph 1016.7mb 68f 69f
8:50 3.5ft 4s 5s 18 22 mph 1016.7mb 68f 69f
7:50 3.5ft 8s 5s 18 22 mph 1016.9mb 68f 69f
6:50 3ft 8s 4s 16 20 mph 1017.3mb 68f 69f
5:50 3ft 9s 5s 16 18 mph 1017.6mb 68f 69f
4:50 3.5ft 8s 5s 16 20 mph 1018.3mb 68f 69f
3:50 2.5ft 8s 5s 16 18 mph 1018.7mb 68f 69f
2:50 3ft 9s 4s 13 16 mph 1019.2mb 68f 69f
1:50 3ft 8s 4s 13 16 mph 1019.6mb 68f 69f
12:50 3.5ft 9s 5s 13 18 mph 1020.3mb 68f 69f
11:50 3ft 9s 4s 16 18 mph 1020.5mb 67f 68f
10:50 3.5ft 9s 5s 16 18 mph 1020.6mb 67f 68f
9:50 3.5ft 9s 5s 16 20 mph 1020.9mb 67f 68f
8:50 3.5ft 9s 5s 16 18 mph 1020.9mb 67f 68f
7:50 3ft 8s 5s 16 18 mph 1020.5mb 67f 68f
6:50 3ft 8s 5s 11 13 mph 1020.5mb 67f 68f
5:50 3ft 8s 5s 13 16 mph 1020.3mb 67f 67f
4:50 3ft 9s 5s 13 16 mph 1020.2mb 67f 68f
3:50 3ft 8s 5s 13 16 mph 1019.9mb 67f 68f
2:50 3ft 9s 4s 13 18 mph 1019.8mb 68f 68f
1:50 3.5ft 9s 5s 16 18 mph 1019.8mb 68f 68f
12:50 3ft 9s 4s 16 20 mph 1020mb 67f 68f
lun. 08/25 11:50 3.5ft 9s 5s 16 20 mph 1019.9mb 67f 68f
10:50 3ft 7s 5s 16 20 mph 1019.7mb 68f 68f
9:50 3.5ft 10s 5s 16 18 mph 1019.9mb 68f 68f
8:50 3.5ft 10s 5s 16 18 mph 1019.9mb 68f 68f
7:50 3.5ft 8s 6s 13 16 mph 1019.5mb 69f 68f
6:50 3.5ft 8s 6s 13 16 mph 1019.2mb 69f 69f
5:50 3ft 8s 6s 13
mph
1019.3mb 69f 69f
4:50 3.5ft 8s 6s 11
mph
1019.2mb 69f 69f
3:50 3.5ft 8s 6s 11 13 mph 1019.3mb 69f 69f